x

Ilm2 - 5 Miles Se Of Wrightsville Beach, Nc (41038) Weather Station

1:08 - Mon 1st May 2017 All times are EDT. -4 hours from GMT.

  • Wind
    16mph, 20mph gusts
  • Sea Temp 71°f
  • Air Temp 73°f
  • Sea Pressure 1020.5mb
  • Ilm2 - 5 Miles Se Of Wrightsville Beach, Nc
  • Ilm2 - 5 Miles Se Of Wrightsville Beach, Nc

More Historic Weather Station data

Upgrade to MSW Pro to gain access to the past 30 days of data for over 8000 Wavebouys and Weather Stations around the globe.

Join Pro

Comparision Forecast

View Surf forecast
   
lun. 05/01 1:08 16 20 mph 1020.5mb 71f 73f
12:08 11 18 mph 1021.2mb 72f 73f
dim. 04/30 11:08 9 18 mph 1021.5mb 72f 74f
10:08 9 22 mph 1021.6mb 73f 74f
9:08 9 18 mph 1021.5mb 73f 74f
8:08 11 16 mph 1021.3mb 73f 74f
7:08 11 16 mph 1021.2mb 73f 74f
6:08 11 18 mph 1021.4mb 73f 74f
5:08 11 16 mph 1021.5mb 73f 74f
4:08 9 16 mph 1022.3mb 73f 75f
3:08 11 16 mph 1022.7mb 73f 74f
2:08 9 16 mph 1023.1mb 72f 74f
1:08 11 18 mph 1023.3mb 72f 74f
12:08 9 13 mph 1023.6mb 72f 74f
11:08 9 11 mph 1023.6mb 72f 73f
10:08 9 11 mph 1023.5mb 71f 74f
9:08 9 13 mph 1023.5mb 71f 73f
8:08 7 11 mph 1022.8mb 71f 73f
7:08 9 16 mph 1022.6mb 71f 73f
6:08 9 16 mph 1022.4mb 71f 72f
5:08 9 13 mph 1022.2mb 71f 72f
4:08 11 16 mph 1022.2mb 71f 72f
3:08 11 16 mph 1021.8mb 71f 72f
2:08 11 13 mph 1022.2mb 71f 73f
1:08 11 16 mph 1022.6mb 71f 73f
12:08 11 16 mph 1022.7mb 71f 73f
sam. 04/29 11:08 9 13 mph 1023.1mb 71f 73f
10:08 9 16 mph 1022.9mb 72f 73f
9:08 9 13 mph 1022.5mb 72f 73f
8:08 7 13 mph 1022.5mb 72f 73f
7:08 9 13 mph 1022.2mb 72f 74f
6:08 7 13 mph 1022.4mb 72f 74f
5:08 9 13 mph 1022.5mb 72f 74f
4:08 11 16 mph 1022.9mb 72f 74f
3:08 9 13 mph 1023.3mb 72f 74f
2:08 9 13 mph 1023.3mb 72f 74f
1:08 9 13 mph 1023.5mb 72f 74f
12:08 9 16 mph 1023.8mb 72f 74f
11:08 9 16 mph 1023.8mb 71f 73f
10:08 7 11 mph 1024.1mb 71f 73f
9:08 7 9 mph 1023.8mb 70f 72f
8:08 9 11 mph 1024mb 70f 72f
7:08 7 11 mph 1023.6mb 70f 72f
6:08 4 7 mph 1022.6mb 70f 71f
5:08 2 4 mph 1021.9mb 70f 70f
4:08 4 7 mph 1021.2mb 70f 71f
3:08 11 13 mph 1021mb 70f 72f
2:08 11 18 mph 1021mb 70f 72f
1:08 13 18 mph 1021.4mb 70f 73f
12:08 13 18 mph 1021.5mb 70f 73f
ven. 04/28 11:08 9 13 mph 1021.2mb 70f 73f
10:08 9 16 mph 1020.8mb 70f 73f
9:08 11 16 mph 1020.3mb 70f 73f
8:08 9 13 mph 1019.9mb 71f 73f
7:08 9 13 mph 1019.8mb 71f 73f
6:08 9 13 mph 1019.8mb 71f 73f
5:08 9 13 mph 1019.7mb 72f 74f
4:08 9 16 mph 1019.5mb 72f 74f
3:08 11 18 mph 1019.8mb 71f 74f
2:08 11 18 mph 1019.9mb 71f 74f
1:08 13 16 mph 1019.6mb 71f 73f
12:08 11 18 mph 1019.7mb 70f 73f
11:08 9 18 mph 1019.3mb 70f 73f
10:08 9 13 mph 1019mb 70f 73f
9:08 11 18 mph 1018.4mb 70f 73f
8:08 9 13 mph 1018.1mb 70f 72f
7:08 9 13 mph 1017.6mb 71f 72f
6:08 11 16 mph 1016.7mb 71f 72f
5:08 11 16 mph 1016.4mb 71f 72f
4:08 9 13 mph 1015.8mb 71f 72f
3:08 9 16 mph 1015.3mb 71f 73f
2:08 11 18 mph 1015mb 71f 73f
1:08 16 22 mph 1014.4mb 71f 73f
12:08 13 18 mph 1014.9mb 71f 73f
jeu. 04/27 11:08 9 11 mph 1015.3mb 71f 72f
10:08 4 9 mph 1014.9mb 71f 72f
9:08 9 16 mph 1013.5mb 71f 73f
8:08 13 18 mph 1012.8mb 71f 72f
7:08 7 11 mph 1013.3mb 71f 72f
6:08 9 13 mph 1013.6mb 72f 72f
5:08 11 16 mph 1013.2mb 72f 73f
4:08 11 18 mph 1013.2mb 71f 73f
3:08 11 18 mph 1013.5mb 71f 73f
2:08 11 18 mph 1013.4mb 71f 72f
1:08 11 18 mph 1013.3mb 71f 72f
12:08 13 22 mph 1014.1mb 71f 72f
11:08 9 16 mph 1014.7mb 71f 72f
10:08 11 18 mph 1014.7mb 70f 72f
9:08 7 11 mph 1014mb 70f 71f
8:08 7 9 mph 1013mb 70f 71f
7:08 4 7 mph 1012.6mb 70f 70f